Terminal Aerodrome Forecast
Issued by NWS Cleveland, OH

Home | Current Version | Previous Version | Text Only | Print | Product List | Glossary On
Versions: 1 2 3 4 5 6 7 8 9 10 11 12 13 14 15 16 17
000
FTUS41 KCLE 312300
TAFERI
TAF
KERI 312336Z 0100/0124 21007KT P6SM SCT015 BKN040
     FM010600 20005KT P6SM BKN015 OVC030
     FM010900 20005KT 3SM BR SCT008 OVC012
     FM012000 22012KT P6SM BKN035=

USA.gov is the U.S. government's official web portal to all federal, state and local government web resources and services.